Time;durP1;ratioP1;P1;durP2;ratioP2;P2;SDS_P1;SDS_P2;PMS_P1;PMS_P2;Temp;Humidity;BMP_temperature;BMP_pressure;BME280_temperature;BME280_humidity;BME280_pressure;Samples;Min_cycle;Max_cycle;Signal;HPM_P1;HPM_P2
2021/06/16 00:00:31;;;;;;;3.63;2.67;;;16.50;99.90;;;;;;5024674;28;20447;-84
2021/06/16 00:02:58;;;;;;;2.70;2.50;;;16.50;99.90;;;;;;5033237;28;20451;-84
2021/06/16 00:05:27;;;;;;;3.57;2.40;;;16.70;99.90;;;;;;5029371;28;20451;-85
2021/06/16 00:07:55;;;;;;;4.67;3.30;;;16.80;99.90;;;;;;5033124;28;20451;-87
2021/06/16 00:10:26;;;;;;;3.60;3.00;;;16.50;99.90;;;;;;5031917;28;20459;-84
2021/06/16 00:12:53;;;;;;;6.03;3.00;;;;;;;;;;5033020;28;20538;-87
2021/06/16 00:15:24;;;;;;;3.20;2.90;;;16.50;99.90;;;;;;5032962;28;20443;-84
2021/06/16 00:17:52;;;;;;;4.13;3.73;;;16.50;99.90;;;;;;5032971;28;20452;-83
2021/06/16 00:20:19;;;;;;;4.57;3.30;;;16.40;99.90;;;;;;5032693;28;20475;-87
2021/06/16 00:22:46;;;;;;;2.97;2.77;;;16.30;99.90;;;;;;5032870;28;20447;-84
2021/06/16 00:25:13;;;;;;;3.53;3.20;;;16.40;99.90;;;;;;5031682;28;20443;-85
2021/06/16 00:27:40;;;;;;;3.67;2.83;;;16.50;99.90;;;;;;5032786;28;20447;-84
2021/06/16 00:30:10;;;;;;;5.07;2.77;;;16.40;99.90;;;;;;5027124;28;20939;-84
2021/06/16 00:32:37;;;;;;;2.67;2.47;;;16.30;99.90;;;;;;5028809;28;20479;-83
2021/06/16 00:35:07;;;;;;;3.87;3.30;;;16.30;99.90;;;;;;5032371;28;20506;-83
2021/06/16 00:37:34;;;;;;;5.73;3.00;;;16.30;99.90;;;;;;5032548;28;20448;-85
2021/06/16 00:40:02;;;;;;;4.40;2.80;;;16.20;99.90;;;;;;5031400;28;20451;-83
2021/06/16 00:42:28;;;;;;;3.60;3.30;;;16.20;99.90;;;;;;5032568;28;20459;-84
2021/06/16 00:44:55;;;;;;;3.33;3.03;;;16.20;99.90;;;;;;5032478;28;20457;-86
2021/06/16 00:47:22;;;;;;;5.27;3.00;;;16.20;99.90;;;;;;5028626;28;20447;-84
2021/06/16 00:49:49;;;;;;;6.40;3.10;;;16.20;99.90;;;;;;5032631;28;20443;-86
2021/06/16 00:52:17;;;;;;;3.63;2.80;;;16.20;99.90;;;;;;5027315;28;20478;-84
2021/06/16 00:54:44;;;;;;;3.27;2.80;;;16.20;99.90;;;;;;5031313;28;20491;-84
2021/06/16 00:57:11;;;;;;;3.10;2.73;;;16.30;99.90;;;;;;5032633;28;20809;-84
2021/06/16 00:59:47;;;;;;;5.83;3.10;;;16.30;99.90;;;;;;5028681;28;20458;-84
2021/06/16 01:02:17;;;;;;;3.17;2.87;;;16.30;99.90;;;;;;5029648;28;20459;-85
2021/06/16 01:04:44;;;;;;;4.37;2.93;;;16.30;99.90;;;;;;5032234;28;20476;-84
2021/06/16 01:07:14;;;;;;;3.70;3.10;;;16.20;99.90;;;;;;5024684;28;20451;-84
2021/06/16 01:09:49;;;;;;;3.47;3.17;;;16.30;99.90;;;;;;5031257;28;20439;-84
2021/06/16 01:12:22;;;;;;;3.80;3.50;;;16.30;99.90;;;;;;5032419;28;20469;-84
2021/06/16 01:14:52;;;;;;;3.20;2.90;;;16.30;99.90;;;;;;5032232;28;20487;-84
2021/06/16 01:17:24;;;;;;;5.03;3.00;;;16.20;99.90;;;;;;5029681;28;20447;-84
2021/06/16 01:20:09;;;;;;;5.33;3.30;;;16.20;99.90;;;;;;5032280;28;20483;-85
2021/06/16 01:22:43;;;;;;;3.23;2.93;;;16.20;99.90;;;;;;5029266;28;20493;-85
2021/06/16 01:25:31;;;;;;;3.97;3.10;;;16.10;99.90;;;;;;5027915;28;20455;-85
2021/06/16 01:28:00;;;;;;;3.57;3.13;;;16.10;99.90;;;;;;5029574;28;20444;-84
2021/06/16 01:30:30;;;;;;;5.10;3.30;;;16.10;99.90;;;;;;5029382;28;20760;-85
2021/06/16 01:32:58;;;;;;;5.00;3.50;;;16.00;99.90;;;;;;5032290;28;20452;-85
2021/06/16 01:35:30;;;;;;;5.40;3.60;;;16.00;99.90;;;;;;5028244;28;20490;-85
2021/06/16 01:37:58;;;;;;;3.50;3.20;;;15.90;99.90;;;;;;5032292;28;20440;-85
2021/06/16 01:40:26;;;;;;;5.83;3.63;;;15.90;99.90;;;;;;5028132;28;20444;-85
2021/06/16 01:42:55;;;;;;;3.93;3.20;;;15.90;99.90;;;;;;5026455;28;20802;-84
2021/06/16 01:45:27;;;;;;;3.70;3.40;;;15.90;99.90;;;;;;5031810;28;20443;-90
2021/06/16 01:48:12;;;;;;;3.50;3.20;;;15.90;99.90;;;;;;5031863;28;20443;-85
2021/06/16 01:50:41;;;;;;;3.80;3.50;;;15.90;99.90;;;;;;5031524;28;20444;-89
2021/06/16 01:53:10;;;;;;;4.10;3.23;;;15.90;99.90;;;;;;5031979;28;20435;-88
2021/06/16 01:55:38;;;;;;;4.37;3.30;;;15.90;99.90;;;;;;5030503;28;20502;-85
2021/06/16 01:58:07;;;;;;;3.80;3.50;;;15.80;99.90;;;;;;5031634;28;20804;-83
2021/06/16 02:00:40;;;;;;;3.33;3.03;;;15.80;99.90;;;;;;5027414;28;20451;-88
2021/06/16 02:03:08;;;;;;;3.60;3.30;;;15.80;99.90;;;;;;5026264;28;20501;-84
2021/06/16 02:05:35;;;;;;;3.93;3.53;;;15.80;99.90;;;;;;5031767;28;20788;-88
2021/06/16 02:08:06;;;;;;;5.10;3.70;;;15.70;99.90;;;;;;5022505;28;20447;-88
2021/06/16 02:10:35;;;;;;;4.20;3.80;;;15.80;99.90;;;;;;5030563;28;20440;-88
2021/06/16 02:13:07;;;;;;;3.90;3.53;;;15.20;99.90;;;;;;5028702;28;20490;-88
2021/06/16 02:15:44;;;;;;;4.50;3.57;;;15.70;99.90;;;;;;5031487;28;20491;-88
2021/06/16 02:18:17;;;;;;;3.93;3.63;;;15.70;99.90;;;;;;5034474;28;20474;-88
2021/06/16 02:20:48;;;;;;;4.50;4.10;;;15.80;99.90;;;;;;5027500;28;20474;-85
2021/06/16 02:23:20;;;;;;;4.53;3.60;;;15.70;99.90;;;;;;5032910;28;20454;-90
2021/06/16 02:25:49;;;;;;;5.80;4.03;;;15.70;99.90;;;;;;5031946;28;20456;-86
2021/06/16 02:28:17;;;;;;;4.67;4.27;;;15.70;99.90;;;;;;5031110;28;21009;-88
2021/06/16 02:30:46;;;;;;;4.63;4.20;;;15.80;99.90;;;;;;5032564;28;20989;-89
2021/06/16 02:33:13;;;;;;;5.00;4.20;;;15.70;99.90;;;;;;5034798;28;20444;-85
2021/06/16 02:35:40;;;;;;;4.80;4.30;;;15.70;99.90;;;;;;5035240;28;20522;-83
2021/06/16 02:38:12;;;;;;;4.57;4.20;;;15.70;99.90;;;;;;5032079;28;20513;-85
2021/06/16 02:40:42;;;;;;;9.60;4.90;;;15.60;99.90;;;;;;5033962;28;20458;-81
2021/06/16 02:43:10;;;;;;;4.97;3.70;;;15.60;99.90;;;;;;5035023;28;20451;-82
2021/06/16 02:45:37;;;;;;;6.67;3.90;;;15.60;99.90;;;;;;5034977;28;20448;-82
2021/06/16 02:48:08;;;;;;;5.53;4.77;;;15.70;99.90;;;;;;5034966;28;20810;-83
2021/06/16 02:50:36;;;;;;;4.67;3.67;;;15.60;99.90;;;;;;5034865;28;20467;-82
2021/06/16 02:53:06;;;;;;;4.87;3.83;;;15.60;99.90;;;;;;5035022;28;20479;-82
2021/06/16 02:55:34;;;;;;;4.60;4.20;;;15.60;99.90;;;;;;5025735;28;20494;-82
2021/06/16 02:58:02;;;;;;;4.53;4.13;;;15.60;99.90;;;;;;5031974;28;20509;-82
2021/06/16 03:00:30;;;;;;;4.57;4.17;;;15.60;99.90;;;;;;5034613;28;20470;-82
2021/06/16 03:02:57;;;;;;;7.60;4.60;;;15.50;99.90;;;;;;5034732;28;20817;-82
2021/06/16 03:05:27;;;;;;;4.67;4.20;;;15.50;99.90;;;;;;5034571;28;20444;-83
2021/06/16 03:07:57;;;;;;;4.73;4.17;;;15.60;99.90;;;;;;5034596;28;20479;-82
2021/06/16 03:10:24;;;;;;;5.97;4.40;;;15.50;99.90;;;;;;5033351;28;20439;-82
2021/06/16 03:12:56;;;;;;;8.73;3.97;;;15.40;99.90;;;;;;5034622;28;20451;-86
2021/06/16 03:15:23;;;;;;;5.00;4.60;;;15.40;99.90;;;;;;5034409;28;20487;-83
2021/06/16 03:17:50;;;;;;;4.90;4.43;;;15.40;99.90;;;;;;5031359;28;20440;-83
2021/06/16 03:20:21;;;;;;;5.77;4.30;;;15.30;99.90;;;;;;5028833;28;20482;-82
2021/06/16 03:22:49;;;;;;;7.13;4.30;;;15.30;99.90;;;;;;5034422;28;20443;-83
2021/06/16 03:25:17;;;;;;;4.90;4.37;;;15.30;99.90;;;;;;5033120;28;20455;-82
2021/06/16 03:27:45;;;;;;;5.77;4.47;;;15.30;99.90;;;;;;5033952;28;20457;-83
2021/06/16 03:30:13;;;;;;;6.90;4.87;;;15.30;99.90;;;;;;5034103;28;20444;-82
2021/06/16 03:32:42;;;;;;;4.43;4.03;;;15.30;99.90;;;;;;5029277;28;20459;-83
2021/06/16 03:35:10;;;;;;;5.00;4.50;;;15.30;99.90;;;;;;5030964;28;20494;-83
2021/06/16 03:37:38;;;;;;;5.23;4.70;;;15.30;99.90;;;;;;5034054;28;20458;-85
2021/06/16 03:40:08;;;;;;;5.53;5.00;;;15.30;99.90;;;;;;5032842;28;20451;-83
2021/06/16 03:42:37;;;;;;;5.43;4.93;;;15.30;99.90;;;;;;5033841;28;20958;-84
2021/06/16 03:45:07;;;;;;;5.93;4.70;;;15.30;99.90;;;;;;5033908;28;20447;-83
2021/06/16 03:47:35;;;;;;;5.23;4.73;;;15.40;99.90;;;;;;5033849;28;20471;-85
2021/06/16 03:50:06;;;;;;;4.93;4.53;;;15.50;99.90;;;;;;5033939;28;20450;-83
2021/06/16 03:52:34;;;;;;;6.77;5.07;;;15.40;99.90;;;;;;5033857;28;20466;-83
2021/06/16 03:55:01;;;;;;;5.07;4.67;;;15.40;99.90;;;;;;5032481;28;20502;-83
2021/06/16 03:57:30;;;;;;;5.10;4.67;;;15.40;99.90;;;;;;5033663;28;20819;-83
2021/06/16 03:59:57;;;;;;;5.10;4.60;;;15.40;99.90;;;;;;5033727;28;20451;-84
2021/06/16 04:02:24;;;;;;;5.20;4.67;;;;;;;;;;5033601;28;20450;-83
2021/06/16 04:04:52;;;;;;;5.50;4.70;;;15.40;99.90;;;;;;5033534;28;20463;-83
2021/06/16 04:07:22;;;;;;;6.60;4.63;;;15.50;99.90;;;;;;5025998;28;20447;-82
2021/06/16 04:09:50;;;;;;;6.57;4.57;;;15.60;99.90;;;;;;5032201;28;20456;-84
2021/06/16 04:12:18;;;;;;;5.80;5.20;;;15.60;99.90;;;;;;5030336;28;20537;-83
2021/06/16 04:14:46;;;;;;;7.17;5.10;;;15.70;99.90;;;;;;5028062;28;20489;-84
2021/06/16 04:17:13;;;;;;;4.60;4.23;;;15.80;99.90;;;;;;5033420;28;20943;-83
2021/06/16 04:19:40;;;;;;;6.50;5.30;;;15.80;99.90;;;;;;5032912;28;20982;-83
2021/06/16 04:22:07;;;;;;;5.10;4.30;;;15.90;99.90;;;;;;5029886;28;20444;-82
2021/06/16 04:24:43;;;;;;;4.83;4.43;;;15.90;99.90;;;;;;5031268;28;20454;-88
2021/06/16 04:27:11;;;;;;;5.00;4.50;;;16.00;99.90;;;;;;5024720;28;20937;-85
2021/06/16 04:29:40;;;;;;;4.77;4.37;;;16.20;99.90;;;;;;5021956;28;20807;-83
2021/06/16 04:32:12;;;;;;;4.80;4.40;;;16.20;99.90;;;;;;5019364;28;20454;-83
2021/06/16 04:34:42;;;;;;;5.40;4.77;;;16.40;99.90;;;;;;5025432;28;20490;-84
2021/06/16 04:37:12;;;;;;;5.77;5.27;;;16.40;99.90;;;;;;5032428;28;20436;-87
2021/06/16 04:39:52;;;;;;;5.10;4.33;;;;;;;;;;5020246;28;20455;-84
2021/06/16 04:42:21;;;;;;;7.80;4.80;;;16.20;99.90;;;;;;5027020;28;20947;-85
2021/06/16 04:44:48;;;;;;;5.03;4.57;;;16.70;99.90;;;;;;5029124;28;20447;-84
2021/06/16 04:47:17;;;;;;;7.50;4.53;;;16.70;99.90;;;;;;5027343;28;20447;-84
2021/06/16 04:49:48;;;;;;;6.50;4.23;;;16.90;99.90;;;;;;5027719;28;20463;-89
2021/06/16 04:52:17;;;;;;;5.30;4.30;;;17.10;99.90;;;;;;5032451;28;20925;-90
2021/06/16 04:54:46;;;;;;;6.53;4.50;;;17.40;99.90;;;;;;5031112;28;20487;-88
2021/06/16 04:57:13;;;;;;;6.37;4.70;;;17.30;99.90;;;;;;5032849;28;20458;-88
2021/06/16 04:59:40;;;;;;;4.50;4.10;;;17.50;99.90;;;;;;5029085;28;20813;-86
2021/06/16 05:02:06;;;;;;;5.27;4.77;;;17.80;99.90;;;;;;5033241;28;20456;-88
2021/06/16 05:04:35;;;;;;;7.50;4.70;;;18.10;99.90;;;;;;5033080;28;20455;-87
2021/06/16 05:07:01;;;;;;;5.83;4.90;;;18.20;99.90;;;;;;5029430;28;20444;-88
2021/06/16 05:09:28;;;;;;;7.27;4.20;;;18.40;99.90;;;;;;5031758;28;20946;-87
2021/06/16 05:11:55;;;;;;;4.37;4.00;;;18.60;99.90;;;;;;5033566;28;20447;-87
2021/06/16 05:14:23;;;;;;;7.07;3.97;;;18.90;99.90;;;;;;5032977;28;20463;-85
2021/06/16 05:16:51;;;;;;;5.43;3.97;;;19.10;99.90;;;;;;5032322;28;20505;-88
2021/06/16 05:19:21;;;;;;;6.40;4.10;;;19.30;99.90;;;;;;5029616;28;20571;-87
2021/06/16 05:21:49;;;;;;;6.60;4.00;;;19.50;99.90;;;;;;5032687;28;20474;-88
2021/06/16 05:24:17;;;;;;;4.20;3.67;;;19.40;99.90;;;;;;5028944;28;20447;-87
2021/06/16 05:26:44;;;;;;;3.73;3.17;;;19.80;99.90;;;;;;5030148;28;20455;-88
2021/06/16 05:29:11;;;;;;;4.53;3.53;;;19.90;99.90;;;;;;5032773;28;20452;-91
2021/06/16 05:31:38;;;;;;;3.43;3.10;;;20.10;99.90;;;;;;5027935;28;20448;-87
2021/06/16 05:34:06;;;;;;;3.80;2.80;;;20.20;99.90;;;;;;5032543;28;20458;-90
2021/06/16 05:36:33;;;;;;;4.70;3.37;;;20.30;99.90;;;;;;5032640;28;20504;-90
2021/06/16 05:39:01;;;;;;;4.60;3.10;;;20.70;99.90;;;;;;5027774;28;20514;-88
2021/06/16 05:41:29;;;;;;;4.47;3.50;;;21.60;99.90;;;;;;5033037;28;20947;-92
2021/06/16 05:43:56;;;;;;;3.43;3.10;;;21.50;99.90;;;;;;5028049;28;20443;-91
2021/06/16 05:46:23;;;;;;;3.90;3.50;;;22.00;99.90;;;;;;5033229;28;20450;-88
2021/06/16 05:48:50;;;;;;;4.07;3.70;;;22.50;99.90;;;;;;5035974;28;20443;-89
2021/06/16 05:51:18;;;;;;;3.73;2.90;;;22.80;99.90;;;;;;5030818;28;20459;-86
2021/06/16 05:53:45;;;;;;;5.93;3.30;;;23.10;99.10;;;;;;5034856;28;20447;-85
2021/06/16 05:56:13;;;;;;;3.70;3.20;;;23.40;98.90;;;;;;5032904;28;20501;-85
2021/06/16 05:58:40;;;;;;;5.40;3.07;;;23.60;98.70;;;;;;5032608;28;20458;-86
2021/06/16 06:01:07;;;;;;;3.67;3.23;;;23.80;98.40;;;;;;5031624;28;20454;-86
2021/06/16 06:03:34;;;;;;;5.20;2.87;;;23.80;97.00;;;;;;5031694;28;20454;-85
2021/06/16 06:06:01;;;;;;;3.27;3.07;;;24.20;96.80;;;;;;5032557;28;20942;-85
2021/06/16 06:08:27;;;;;;;6.10;2.90;;;24.10;96.70;;;;;;5031377;28;20447;-85
2021/06/16 06:10:57;;;;;;;6.67;3.50;;;;;;;;;;5034272;28;20462;-86
2021/06/16 06:13:25;;;;;;;4.20;3.80;;;23.90;95.10;;;;;;5035392;28;20487;-83
2021/06/16 06:15:52;;;;;;;3.37;3.07;;;24.00;95.70;;;;;;5035545;28;20491;-84
2021/06/16 06:18:19;;;;;;;2.93;2.73;;;24.00;95.40;;;;;;5035598;28;20444;-83
2021/06/16 06:20:46;;;;;;;4.13;3.80;;;23.60;95.70;;;;;;5035322;28;20479;-84
2021/06/16 06:23:13;;;;;;;3.53;3.10;;;23.60;96.00;;;;;;5035223;28;20444;-84
2021/06/16 06:25:40;;;;;;;4.00;3.60;;;24.20;95.50;;;;;;5033914;28;20443;-84
2021/06/16 06:28:07;;;;;;;3.30;3.00;;;24.00;95.00;;;;;;5035185;28;20538;-83
2021/06/16 06:30:36;;;;;;;3.87;2.77;;;24.50;93.70;;;;;;5031106;28;20955;-84
2021/06/16 06:33:03;;;;;;;3.60;3.07;;;24.90;93.70;;;;;;5030999;28;20454;-86
2021/06/16 06:35:30;;;;;;;3.03;2.73;;;24.70;94.60;;;;;;5035138;28;21017;-88
2021/06/16 06:37:57;;;;;;;3.30;3.00;;;24.40;95.10;;;;;;5027471;28;20847;-88
2021/06/16 06:40:24;;;;;;;3.27;2.97;;;24.90;94.80;;;;;;5033690;28;20821;-85
2021/06/16 06:42:51;;;;;;;4.27;3.13;;;25.30;93.40;;;;;;5034856;28;20452;-84
2021/06/16 06:45:18;;;;;;;3.67;3.13;;;25.50;93.40;;;;;;5034638;28;20451;-84
2021/06/16 06:47:46;;;;;;;3.33;3.13;;;25.00;93.30;;;;;;5034904;28;20454;-83
2021/06/16 06:50:14;;;;;;;4.60;2.83;;;24.90;94.00;;;;;;5029449;28;20467;-84
2021/06/16 06:52:42;;;;;;;5.70;3.30;;;24.30;94.40;;;;;;5034604;28;20963;-84
2021/06/16 06:55:10;;;;;;;3.40;2.70;;;24.70;94.30;;;;;;5033489;28;20462;-87
2021/06/16 06:57:37;;;;;;;3.30;3.00;;;25.00;93.60;;;;;;5029301;28;20448;-82
2021/06/16 07:00:05;;;;;;;3.33;3.03;;;24.70;92.90;;;;;;5034580;28;20466;-83
2021/06/16 07:02:32;;;;;;;6.90;3.33;;;24.80;92.60;;;;;;5028375;28;20451;-84
2021/06/16 07:05:00;;;;;;;3.00;2.53;;;25.00;92.60;;;;;;5031718;28;20451;-84
2021/06/16 07:07:27;;;;;;;3.00;2.67;;;24.60;93.10;;;;;;5034498;28;20961;-83
2021/06/16 07:09:54;;;;;;;4.23;2.83;;;24.90;93.50;;;;;;5030328;28;20439;-85
2021/06/16 07:12:21;;;;;;;5.73;3.30;;;25.50;92.80;;;;;;5034645;28;20446;-83
2021/06/16 07:14:48;;;;;;;4.40;3.27;;;26.10;92.60;;;;;;5034387;28;20486;-83
2021/06/16 07:17:15;;;;;;;3.67;3.23;;;26.10;92.30;;;;;;5029115;28;20578;-85
2021/06/16 07:19:41;;;;;;;5.67;2.90;;;26.20;93.00;;;;;;5030059;28;20489;-84
2021/06/16 07:22:09;;;;;;;3.60;3.30;;;26.00;92.90;;;;;;5030127;28;20458;-84
2021/06/16 07:24:36;;;;;;;3.33;2.67;;;26.60;91.20;;;;;;5033036;28;20456;-83
2021/06/16 07:27:04;;;;;;;3.43;3.23;;;26.70;90.00;;;;;;5030105;28;20458;-83
2021/06/16 07:29:31;;;;;;;4.10;3.10;;;27.00;88.70;;;;;;5028951;28;20489;-85
2021/06/16 07:31:58;;;;;;;3.07;2.50;;;27.20;87.20;;;;;;5029935;28;20443;-85
2021/06/16 07:34:24;;;;;;;3.17;2.93;;;27.00;86.50;;;;;;5033736;28;20458;-85
2021/06/16 07:36:52;;;;;;;3.03;2.83;;;27.20;89.40;;;;;;5033866;28;20848;-85
2021/06/16 07:39:20;;;;;;;5.60;2.90;;;26.90;87.70;;;;;;5028915;28;20497;-83
2021/06/16 07:41:47;;;;;;;4.87;3.27;;;26.80;87.30;;;;;;5033820;28;20519;-86
2021/06/16 07:44:14;;;;;;;5.80;3.30;;;27.30;85.90;;;;;;5033694;28;20799;-83
2021/06/16 07:46:42;;;;;;;3.20;3.00;;;26.80;87.70;;;;;;5029353;28;20883;-84
2021/06/16 07:49:09;;;;;;;3.10;2.80;;;27.00;88.10;;;;;;5031002;28;20471;-83
2021/06/16 07:51:35;;;;;;;3.70;2.90;;;26.70;87.70;;;;;;5033572;28;20462;-85
2021/06/16 07:54:02;;;;;;;5.67;2.97;;;26.40;90.30;;;;;;5032265;28;21367;-86
2021/06/16 07:56:33;;;;;;;3.97;3.13;;;26.40;88.80;;;;;;5033467;28;20531;-88
2021/06/16 07:58:59;;;;;;;5.50;3.40;;;27.00;89.80;;;;;;5033436;28;20443;-87
2021/06/16 08:01:26;;;;;;;4.93;3.13;;;27.90;85.70;;;;;;5033314;28;20939;-87
2021/06/16 08:03:53;;;;;;;7.60;3.30;;;28.20;85.60;;;;;;5028529;28;20440;-86
2021/06/16 08:06:20;;;;;;;3.23;2.93;;;28.50;87.10;;;;;;5033506;28;20527;-88
2021/06/16 08:08:47;;;;;;;7.77;3.03;;;28.90;82.20;;;;;;5014789;28;20836;-88
2021/06/16 08:11:15;;;;;;;3.00;2.80;;;29.20;80.90;;;;;;5033439;28;20455;-89
2021/06/16 08:13:43;;;;;;;3.53;3.00;;;29.10;80.60;;;;;;5033023;28;20452;-87
2021/06/16 08:16:10;;;;;;;3.93;3.00;;;29.00;80.20;;;;;;5032428;28;20483;-87
2021/06/16 08:18:37;;;;;;;4.67;3.07;;;29.50;77.00;;;;;;5033170;28;20478;-89
2021/06/16 08:21:03;;;;;;;3.03;2.80;;;30.10;76.00;;;;;;5033174;28;20490;-86
2021/06/16 08:23:30;;;;;;;2.90;2.43;;;29.70;74.10;;;;;;5033098;28;20920;-85
2021/06/16 08:25:57;;;;;;;5.63;3.10;;;29.60;76.80;;;;;;5031953;28;20455;-85
2021/06/16 08:28:24;;;;;;;3.90;2.97;;;29.80;74.70;;;;;;5033239;28;20538;-85
2021/06/16 08:30:52;;;;;;;2.67;2.47;;;29.90;74.40;;;;;;5029001;28;21090;-86
2021/06/16 08:33:19;;;;;;;3.37;3.07;;;29.80;72.90;;;;;;5032852;28;20451;-87
2021/06/16 08:35:45;;;;;;;5.63;2.70;;;29.50;72.70;;;;;;5033109;28;20455;-86
2021/06/16 08:38:12;;;;;;;3.47;2.90;;;29.70;73.50;;;;;;5028787;28;20450;-86
2021/06/16 08:40:39;;;;;;;2.23;2.13;;;29.50;75.50;;;;;;5031904;28;20927;-86
2021/06/16 08:43:05;;;;;;;4.33;2.80;;;29.30;74.50;;;;;;5032680;28;20462;-87
2021/06/16 08:45:38;;;;;;;4.83;3.17;;;29.40;75.40;;;;;;5032535;28;20947;-88
2021/06/16 08:48:08;;;;;;;2.70;2.50;;;28.40;83.30;;;;;;5029520;28;20448;-87
2021/06/16 08:50:36;;;;;;;3.63;2.63;;;28.50;79.60;;;;;;5032512;28;20443;-88
2021/06/16 08:53:03;;;;;;;3.43;3.13;;;28.10;79.30;;;;;;5032585;28;20447;-88
2021/06/16 08:55:30;;;;;;;4.23;3.00;;;28.60;80.50;;;;;;5027237;28;20448;-87
2021/06/16 08:57:57;;;;;;;3.80;3.03;;;29.50;77.60;;;;;;5032413;28;20498;-86
2021/06/16 09:00:25;;;;;;;4.00;3.30;;;29.60;75.60;;;;;;5027393;28;20448;-88
2021/06/16 09:02:52;;;;;;;3.60;2.87;;;30.80;74.90;;;;;;5027224;28;20452;-86
2021/06/16 09:05:34;;;;;;;4.63;3.43;;;30.60;73.10;;;;;;5032723;28;20453;-84
2021/06/16 09:08:02;;;;;;;4.73;3.20;;;30.90;72.10;;;;;;5032513;28;20458;-85
2021/06/16 09:10:29;;;;;;;9.93;3.30;;;31.30;70.10;;;;;;5028064;28;20451;-85
2021/06/16 09:12:59;;;;;;;3.10;2.83;;;31.70;72.90;;;;;;5029430;28;20447;-86
2021/06/16 09:15:31;;;;;;;3.80;3.50;;;31.90;70.60;;;;;;5028792;28;20581;-87
2021/06/16 09:18:02;;;;;;;4.77;3.23;;;32.10;71.20;;;;;;5013899;28;20498;-88
2021/06/16 09:20:33;;;;;;;3.70;3.50;;;32.00;68.80;;;;;;5029326;28;20470;-86
2021/06/16 09:23:11;;;;;;;3.90;3.50;;;31.80;68.80;;;;;;5029046;28;20497;-87
2021/06/16 09:25:38;;;;;;;3.90;3.30;;;32.00;67.90;;;;;;5031659;28;20569;-86
2021/06/16 09:28:06;;;;;;;3.80;3.00;;;32.50;68.40;;;;;;5036729;28;20462;-87
2021/06/16 09:30:43;;;;;;;4.97;3.13;;;31.50;69.00;;;;;;5013159;28;20976;-86
2021/06/16 09:33:17;;;;;;;3.60;3.27;;;31.90;65.90;;;;;;4993290;28;20460;-85
2021/06/16 09:35:48;;;;;;;3.47;2.80;;;32.20;66.10;;;;;;4993239;28;20448;-84
2021/06/16 09:38:24;;;;;;;3.57;3.27;;;32.20;65.80;;;;;;4996776;28;20488;-83
2021/06/16 09:40:52;;;;;;;6.80;3.03;;;31.40;65.30;;;;;;4995637;28;20543;-84
2021/06/16 09:43:21;;;;;;;4.03;3.10;;;31.80;67.20;;;;;;4996742;28;20471;-86
2021/06/16 09:45:53;;;;;;;3.90;3.50;;;31.70;65.90;;;;;;4996542;28;20459;-87
2021/06/16 09:48:30;;;;;;;3.40;3.10;;;31.50;68.80;;;;;;4996637;28;20582;-85
2021/06/16 09:51:18;;;;;;;5.90;3.10;;;31.50;64.30;;;;;;4996790;28;20829;-84
2021/06/16 09:54:13;;;;;;;3.27;3.07;;;32.00;64.80;;;;;;4995837;28;20563;-87
2021/06/16 09:56:43;;;;;;;5.33;2.70;;;32.20;64.20;;;;;;4996456;28;21014;-88
2021/06/16 09:59:11;;;;;;;8.30;2.97;;;32.00;64.90;;;;;;4996489;28;20445;-85
2021/06/16 10:01:45;;;;;;;5.00;3.20;;;31.90;64.70;;;;;;4996383;28;20452;-87
2021/06/16 10:04:31;;;;;;;3.47;3.20;;;31.80;63.80;;;;;;4996320;28;20452;-85
2021/06/16 10:07:14;;;;;;;4.90;3.23;;;31.80;65.90;;;;;;4993704;28;20484;-86
2021/06/16 10:09:48;;;;;;;3.30;3.00;;;32.40;63.40;;;;;;4995351;28;20452;-84
2021/06/16 10:12:16;;;;;;;4.87;2.90;;;31.80;64.10;;;;;;4996234;28;20459;-86
2021/06/16 10:14:42;;;;;;;3.50;3.20;;;32.30;69.60;;;;;;4996479;28;20448;-85
2021/06/16 10:17:10;;;;;;;5.10;3.33;;;32.30;62.80;;;;;;4996035;28;20515;-85
2021/06/16 10:19:37;;;;;;;3.73;3.20;;;31.00;63.50;;;;;;4996086;28;20548;-87
2021/06/16 10:22:05;;;;;;;4.00;3.00;;;31.70;65.40;;;;;;4996179;28;20633;-89
2021/06/16 10:24:32;;;;;;;2.80;2.60;;;31.80;64.90;;;;;;4992140;28;20445;-87
2021/06/16 10:27:03;;;;;;;3.43;3.00;;;32.30;64.40;;;;;;4996089;28;20456;-86
2021/06/16 10:29:33;;;;;;;4.87;3.00;;;32.50;64.80;;;;;;4995701;28;20957;-86
2021/06/16 10:32:04;;;;;;;3.43;3.13;;;32.70;62.80;;;;;;4995882;28;20456;-87
2021/06/16 10:34:55;;;;;;;3.57;3.27;;;32.90;61.70;;;;;;4995813;28;20924;-86
2021/06/16 10:37:27;;;;;;;7.40;4.03;;;32.80;63.00;;;;;;4992065;28;20481;-86
2021/06/16 10:40:31;;;;;;;4.20;3.13;;;33.10;62.20;;;;;;4994264;28;20456;-86
2021/06/16 10:43:28;;;;;;;4.90;3.20;;;32.70;62.40;;;;;;4995630;28;20453;-84
2021/06/16 10:46:03;;;;;;;3.90;2.93;;;32.40;60.70;;;;;;4995641;28;20454;-88
2021/06/16 10:49:01;;;;;;;5.53;3.70;;;32.80;62.00;;;;;;4995679;28;20567;-85
2021/06/16 10:51:43;;;;;;;4.17;3.47;;;31.10;63.10;;;;;;4995691;28;20449;-85
2021/06/16 10:54:30;;;;;;;3.57;3.27;;;32.10;63.60;;;;;;4994312;28;20556;-88
2021/06/16 10:57:00;;;;;;;5.90;3.63;;;32.60;65.30;;;;;;4995305;28;20522;-87
2021/06/16 11:00:01;;;;;;;3.40;3.10;;;32.50;65.60;;;;;;4995515;28;20450;-87
2021/06/16 11:02:58;;;;;;;4.50;4.10;;;32.60;61.70;;;;;;4995384;28;20444;-87
2021/06/16 11:05:27;;;;;;;3.93;3.30;;;32.10;90.30;;;;;;4994173;28;20457;-86
2021/06/16 11:07:56;;;;;;;7.13;4.07;;;;;;;;;;4995302;28;20796;-86
2021/06/16 11:10:44;;;;;;;3.70;3.40;;;32.40;66.70;;;;;;4994462;28;20524;-88
2021/06/16 11:13:36;;;;;;;5.13;3.50;;;32.80;62.40;;;;;;4996131;28;20476;-87
2021/06/16 11:16:03;;;;;;;4.97;3.27;;;;;;;;;;4994695;28;20456;-85
2021/06/16 11:18:30;;;;;;;3.67;3.37;;;;;;;;;;4993956;28;21031;-88
2021/06/16 11:20:58;;;;;;;4.00;3.50;;;31.50;63.80;;;;;;4996308;28;20485;-86
2021/06/16 11:23:28;;;;;;;3.50;3.20;;;;;;;;;;4995739;28;20452;-88
2021/06/16 11:25:54;;;;;;;4.00;3.70;;;31.60;95.00;;;;;;4991996;28;20457;-88
2021/06/16 11:28:36;;;;;;;3.83;3.53;;;32.00;64.30;;;;;;4995479;28;20453;-90
2021/06/16 11:31:10;;;;;;;7.73;4.23;;;32.00;62.20;;;;;;4992379;28;20441;-87
2021/06/16 11:33:52;;;;;;;3.77;3.20;;;31.90;93.10;;;;;;4995602;28;20445;-90
2021/06/16 11:36:37;;;;;;;4.03;3.63;;;32.00;65.50;;;;;;4989190;28;20492;-87
2021/06/16 11:39:09;;;;;;;3.70;3.40;;;31.90;80.80;;;;;;4993387;28;20449;-90
2021/06/16 11:41:40;;;;;;;4.43;3.47;;;32.00;79.90;;;;;;4995038;28;20451;-88
2021/06/16 11:44:14;;;;;;;4.40;3.77;;;31.50;63.20;;;;;;4997988;28;20540;-93
2021/06/16 11:46:43;;;;;;;4.50;3.30;;;31.90;74.70;;;;;;4994680;28;20473;-87
2021/06/16 11:49:12;;;;;;;5.90;3.70;;;31.60;70.80;;;;;;4994632;28;20473;-85
2021/06/16 11:51:41;;;;;;;5.03;3.87;;;31.40;84.60;;;;;;4994898;28;20852;-88
2021/06/16 11:57:00;;;;;;;3.77;3.47;;;31.40;85.40;;;;;;4994197;28;20477;-87
2021/06/16 11:59:33;;;;;;;3.77;3.47;;;31.70;86.50;;;;;;4994516;28;20953;-87
2021/06/16 12:02:04;;;;;;;3.80;3.50;;;31.50;88.60;;;;;;4994016;28;20449;-86
2021/06/16 12:04:44;;;;;;;4.13;3.03;;;31.10;78.80;;;;;;5001960;28;20450;-89
2021/06/16 12:07:10;;;;;;;3.50;3.30;;;31.00;77.30;;;;;;4998510;28;20461;-87
2021/06/16 12:09:44;;;;;;;4.43;4.03;;;30.80;65.90;;;;;;4995472;28;20449;-88
2021/06/16 12:12:11;;;;;;;3.50;3.13;;;31.00;82.50;;;;;;4999287;28;20453;-88
2021/06/16 12:14:40;;;;;;;3.33;3.13;;;30.80;80.70;;;;;;4997080;28;20453;-85
2021/06/16 12:17:07;;;;;;;5.50;3.50;;;31.10;88.90;;;;;;4996437;28;20926;-87
2021/06/16 12:19:35;;;;;;;3.57;3.27;;;30.40;90.40;;;;;;4992720;28;20488;-89
2021/06/16 12:22:04;;;;;;;5.10;3.40;;;30.70;62.90;;;;;;4995553;28;20941;-88
2021/06/16 12:24:33;;;;;;;6.93;3.90;;;31.60;90.10;;;;;;4996221;28;20456;-89
2021/06/16 12:27:07;;;;;;;3.53;3.20;;;31.90;90.90;;;;;;4997973;28;20496;-88
2021/06/16 12:29:36;;;;;;;3.87;3.47;;;31.00;88.70;;;;;;4996388;28;20453;-89
2021/06/16 12:32:07;;;;;;;5.20;3.93;;;31.90;85.70;;;;;;4997620;28;20449;-86
2021/06/16 12:34:57;;;;;;;5.67;3.90;;;;;;;;;;4994047;28;20454;-92
2021/06/16 12:37:25;;;;;;;4.67;4.17;;;;;;;;;;5002677;28;20524;-90
2021/06/16 12:39:58;;;;;;;4.47;3.60;;;30.70;82.90;;;;;;5002619;28;20505;-90
2021/06/16 12:42:40;;;;;;;4.43;3.23;;;31.10;64.00;;;;;;5000241;28;20453;-94
2021/06/16 12:45:31;;;;;;;4.53;3.23;;;31.10;77.30;;;;;;4998341;28;20430;-92
2021/06/16 12:48:01;;;;;;;3.37;3.17;;;32.00;63.10;;;;;;4991269;28;20984;-91
2021/06/16 12:50:31;;;;;;;3.73;3.43;;;31.90;82.80;;;;;;5000050;28;20457;-91
2021/06/16 12:52:58;;;;;;;4.33;3.80;;;31.30;82.40;;;;;;4994663;28;20453;-92
2021/06/16 12:55:26;;;;;;;3.73;3.43;;;31.40;83.80;;;;;;4998468;28;20449;-91
2021/06/16 12:57:54;;;;;;;3.90;3.50;;;31.00;81.80;;;;;;4996051;28;20488;-84
2021/06/16 13:00:26;;;;;;;4.27;3.30;;;30.90;88.40;;;;;;4994377;28;20449;-87
2021/06/16 13:02:53;;;;;;;4.50;3.43;;;31.10;87.10;;;;;;4995043;28;20477;-87
2021/06/16 13:05:28;;;;;;;5.60;3.70;;;30.90;86.50;;;;;;4993925;28;20464;-89
2021/06/16 13:07:57;;;;;;;3.97;3.27;;;30.80;86.40;;;;;;4995853;28;20465;-93